createdAt,value
2023-01-13T00:01:48.733Z,78.96
2023-01-13T00:04:15.675Z,78.77
2023-01-13T00:06:42.624Z,78.17
2023-01-13T00:09:09.584Z,79.14
2023-01-13T00:11:36.595Z,79.04
2023-01-13T00:14:03.679Z,79.26
2023-01-13T00:16:30.591Z,78.78
2023-01-13T00:18:57.697Z,78.87
2023-01-13T00:21:24.970Z,79.00
2023-01-13T00:23:54.097Z,79.17
2023-01-13T00:26:23.896Z,79.24
2023-01-13T00:28:51.753Z,78.99
2023-01-13T00:31:21.404Z,79.58
2023-01-13T00:33:51.631Z,79.19
2023-01-13T00:36:20.592Z,79.80
2023-01-13T00:38:48.227Z,79.36
2023-01-13T00:41:17.894Z,79.03
2023-01-13T00:43:45.469Z,79.68
2023-01-13T00:46:15.100Z,79.37
2023-01-13T00:48:42.300Z,79.10
2023-01-13T00:51:13.011Z,78.90
2023-01-13T00:53:43.458Z,78.82
2023-01-13T00:56:24.326Z,78.89
2023-01-13T00:58:58.937Z,78.26
2023-01-13T01:01:26.171Z,79.57
2023-01-13T01:03:54.619Z,78.28
2023-01-13T01:06:26.991Z,79.56
2023-01-13T01:08:56.922Z,79.86
2023-01-13T01:11:30.178Z,79.63
2023-01-13T01:13:59.141Z,78.58
2023-01-13T01:16:28.642Z,79.50
2023-01-13T01:18:56.289Z,79.82
2023-01-13T01:21:24.899Z,79.17
2023-01-13T01:23:52.220Z,78.95
2023-01-13T01:26:27.206Z,78.80
2023-01-13T01:28:54.720Z,79.78
2023-01-13T01:31:24.344Z,79.42
2023-01-13T01:33:51.959Z,79.96
2023-01-13T01:36:20.623Z,79.77
2023-01-13T01:38:49.088Z,79.49
2023-01-13T01:41:23.783Z,79.60
2023-01-13T01:44:07.032Z,79.52
2023-01-13T01:46:44.760Z,79.09
2023-01-13T01:49:17.760Z,80.09
2023-01-13T01:51:52.529Z,79.64
2023-01-13T01:54:34.724Z,79.19
2023-01-13T01:57:01.711Z,79.02
2023-01-13T01:59:32.255Z,79.66
2023-01-13T02:01:59.512Z,78.61
2023-01-13T02:04:32.859Z,79.11
2023-01-13T02:07:01.556Z,78.80
2023-01-13T02:09:29.058Z,79.48
2023-01-13T02:12:14.622Z,79.29
2023-01-13T02:14:42.446Z,80.75
2023-01-13T02:17:21.425Z,79.18
2023-01-13T02:20:28.915Z,80.25
2023-01-13T02:23:42.018Z,79.27
2023-01-13T02:26:39.995Z,80.70
2023-01-13T02:29:53.650Z,80.61
2023-01-13T02:32:33.325Z,80.07
2023-01-13T02:35:12.205Z,80.93
2023-01-13T02:37:42.974Z,80.49
2023-01-13T02:40:28.262Z,80.31
2023-01-13T02:43:39.705Z,80.58
2023-01-13T02:46:14.547Z,81.25
2023-01-13T02:48:44.813Z,80.51
2023-01-13T02:51:16.845Z,80.79
2023-01-13T02:53:51.106Z,79.23
2023-01-13T02:56:19.717Z,80.07
2023-01-13T02:58:47.540Z,79.53
2023-01-13T03:01:14.720Z,79.66
2023-01-13T03:03:41.787Z,79.34
2023-01-13T03:06:44.181Z,79.37
2023-01-13T03:09:31.080Z,79.00
2023-01-13T03:12:19.145Z,79.87
2023-01-13T03:15:10.661Z,79.53
2023-01-13T03:17:40.342Z,79.55
2023-01-13T03:20:22.062Z,78.80
2023-01-13T03:23:03.379Z,79.81
2023-01-13T03:25:37.259Z,79.73
2023-01-13T03:28:08.831Z,80.08
2023-01-13T03:30:42.566Z,79.57
2023-01-13T03:33:17.837Z,78.90
2023-01-13T03:35:49.339Z,79.38
2023-01-13T03:38:26.019Z,79.36
2023-01-13T03:40:56.747Z,78.97
2023-01-13T03:43:54.157Z,79.21
2023-01-13T03:46:32.369Z,78.11
2023-01-13T03:49:03.235Z,77.98
2023-01-13T03:51:33.096Z,79.12
2023-01-13T03:54:04.881Z,79.25
2023-01-13T03:56:42.410Z,79.09
2023-01-13T03:59:16.666Z,78.76
2023-01-13T04:01:51.616Z,78.57
2023-01-13T04:04:24.639Z,79.20
2023-01-13T04:07:30.852Z,78.97
2023-01-13T04:10:01.844Z,77.84
2023-01-13T04:13:04.274Z,77.76
2023-01-13T04:15:41.098Z,78.40
2023-01-13T04:18:30.691Z,78.46
2023-01-13T04:21:00.307Z,78.96
2023-01-13T04:23:28.263Z,78.15
2023-01-13T04:25:56.053Z,77.90
2023-01-13T04:28:23.404Z,78.76
2023-01-13T04:30:50.757Z,78.48
2023-01-13T04:33:19.433Z,78.83
2023-01-13T04:35:47.976Z,78.12
2023-01-13T04:38:17.748Z,78.62
2023-01-13T04:40:45.264Z,78.61
2023-01-13T04:43:12.520Z,78.43
2023-01-13T04:45:39.480Z,78.66
2023-01-13T04:48:06.744Z,78.57
2023-01-13T04:50:34.309Z,77.84
2023-01-13T04:53:01.768Z,79.04
2023-01-13T04:55:29.095Z,78.61
2023-01-13T04:57:56.166Z,78.45
2023-01-13T05:00:23.924Z,77.74
2023-01-13T05:02:51.534Z,78.73
2023-01-13T05:05:19.232Z,77.89
2023-01-13T05:07:46.604Z,77.92
2023-01-13T05:10:13.789Z,78.07
2023-01-13T05:12:59.672Z,78.21
2023-01-13T05:15:45.433Z,78.35
2023-01-13T05:18:13.018Z,78.25
2023-01-13T05:20:40.047Z,78.64
2023-01-13T05:23:25.641Z,79.21
2023-01-13T05:25:52.793Z,79.20
2023-01-13T05:28:19.756Z,78.32
2023-01-13T05:30:49.442Z,78.66
2023-01-13T05:33:20.407Z,78.70
2023-01-13T05:35:48.253Z,78.07
2023-01-13T05:38:15.981Z,79.22
2023-01-13T05:41:01.952Z,79.27
2023-01-13T05:43:29.311Z,79.31
2023-01-13T05:45:56.065Z,79.73
2023-01-13T05:48:25.280Z,78.70
2023-01-13T05:50:53.996Z,78.35
2023-01-13T05:53:21.738Z,78.25
2023-01-13T05:55:49.588Z,78.73
2023-01-13T05:58:18.125Z,78.77
2023-01-13T06:00:45.489Z,78.24
2023-01-13T06:03:13.029Z,78.97
2023-01-13T06:05:41.190Z,79.39
2023-01-13T06:08:09.115Z,79.55
2023-01-13T06:10:36.702Z,79.22
2023-01-13T06:13:04.632Z,78.70
2023-01-13T06:15:32.450Z,78.22
2023-01-13T06:18:01.892Z,77.98
2023-01-13T06:20:28.928Z,79.24
2023-01-13T06:22:55.849Z,78.49
2023-01-13T06:25:28.719Z,78.97
2023-01-13T06:27:56.978Z,78.51
2023-01-13T06:30:23.903Z,79.00
2023-01-13T06:32:55.421Z,77.87
2023-01-13T06:35:29.875Z,79.18
2023-01-13T06:37:59.378Z,78.84
2023-01-13T06:40:26.491Z,78.65
2023-01-13T06:43:16.130Z,78.24
2023-01-13T06:45:48.008Z,79.03
2023-01-13T06:48:16.064Z,78.08
2023-01-13T06:50:43.386Z,77.51
2023-01-13T06:53:10.779Z,78.11
2023-01-13T06:55:37.887Z,79.17
2023-01-13T06:58:05.147Z,78.33
2023-01-13T07:00:38.124Z,78.14
2023-01-13T07:03:14.607Z,78.77
2023-01-13T07:05:43.338Z,77.74
2023-01-13T07:08:10.999Z,78.25
2023-01-13T07:10:38.268Z,76.81
2023-01-13T07:13:24.695Z,77.26
2023-01-13T07:15:59.468Z,76.96
2023-01-13T07:18:28.665Z,77.09
2023-01-13T07:20:57.363Z,78.06
2023-01-13T07:23:25.671Z,76.87
2023-01-13T07:25:55.831Z,76.92
2023-01-13T07:28:23.640Z,77.56
2023-01-13T07:30:50.574Z,76.88
2023-01-13T07:33:18.710Z,77.25
2023-01-13T07:35:46.907Z,77.31
2023-01-13T07:38:14.085Z,77.18
2023-01-13T07:40:41.117Z,76.55
2023-01-13T07:43:30.119Z,77.10
2023-01-13T07:46:05.454Z,76.31
2023-01-13T07:48:34.626Z,76.63
2023-01-13T07:51:06.992Z,76.87
2023-01-13T07:53:34.931Z,76.08
2023-01-13T07:56:03.765Z,75.92
2023-01-13T07:58:30.967Z,75.32
2023-01-13T08:00:58.313Z,76.28
2023-01-13T08:03:26.651Z,76.29
2023-01-13T08:05:53.707Z,75.78
2023-01-13T08:08:20.633Z,76.41
2023-01-13T08:10:47.533Z,76.26
2023-01-13T08:13:20.335Z,75.62
2023-01-13T08:15:52.412Z,75.71
2023-01-13T08:18:22.413Z,75.74
2023-01-13T08:20:49.966Z,74.89
2023-01-13T08:23:16.972Z,75.36
2023-01-13T08:25:44.426Z,75.13
2023-01-13T08:28:12.156Z,76.13
2023-01-13T08:30:39.403Z,74.99
2023-01-13T08:33:08.662Z,75.93
2023-01-13T08:35:40.132Z,76.06
2023-01-13T08:38:08.210Z,76.80
2023-01-13T08:40:35.523Z,76.45
2023-01-13T08:43:02.881Z,76.79
2023-01-13T08:45:29.847Z,76.82
2023-01-13T08:47:56.800Z,76.42
2023-01-13T08:50:23.826Z,76.26
2023-01-13T08:52:50.815Z,75.62
2023-01-13T08:55:17.723Z,74.65
2023-01-13T08:57:44.763Z,74.75
2023-01-13T09:00:13.129Z,75.84
2023-01-13T09:02:40.106Z,76.42
2023-01-13T09:05:08.506Z,77.10
2023-01-13T09:07:37.613Z,78.23
2023-01-13T09:10:07.363Z,78.99
2023-01-13T09:12:53.343Z,78.57
2023-01-13T09:15:21.616Z,76.99
2023-01-13T09:17:48.650Z,77.12
2023-01-13T09:20:15.911Z,78.04
2023-01-13T09:22:42.834Z,77.27
2023-01-13T09:25:10.306Z,76.21
2023-01-13T09:27:37.435Z,76.62
2023-01-13T09:30:05.941Z,76.77
2023-01-13T09:32:33.192Z,75.88
2023-01-13T09:35:00.282Z,76.73
2023-01-13T09:37:31.652Z,76.35
2023-01-13T09:39:58.571Z,77.30
2023-01-13T09:42:52.925Z,77.59
2023-01-13T09:45:42.729Z,77.67
2023-01-13T09:48:16.901Z,77.10
2023-01-13T09:51:02.335Z,76.61
2023-01-13T09:53:33.138Z,78.85
2023-01-13T09:56:00.604Z,79.03
2023-01-13T09:58:27.602Z,77.88
2023-01-13T10:01:20.220Z,77.57
2023-01-13T10:03:49.432Z,77.88
2023-01-13T10:06:19.538Z,77.24
2023-01-13T10:08:48.494Z,78.09
2023-01-13T10:11:43.114Z,76.97
2023-01-13T10:14:18.493Z,78.32
2023-01-13T10:17:11.972Z,78.30
2023-01-13T10:19:48.664Z,77.72
2023-01-13T10:22:37.431Z,78.42
2023-01-13T10:25:39.439Z,77.73
2023-01-13T10:28:17.067Z,77.63
2023-01-13T10:30:47.850Z,78.24
2023-01-13T10:33:17.669Z,77.83
2023-01-13T10:35:55.242Z,78.16
2023-01-13T10:38:27.141Z,76.42
2023-01-13T10:41:00.219Z,76.54
2023-01-13T10:43:29.722Z,76.99
2023-01-13T10:46:06.282Z,76.96
2023-01-13T10:48:42.405Z,77.35
2023-01-13T10:51:47.711Z,76.67
2023-01-13T10:54:22.402Z,77.10
2023-01-13T10:56:50.795Z,77.79
2023-01-13T10:59:22.415Z,77.12
2023-01-13T11:02:26.993Z,77.93
2023-01-13T11:04:54.206Z,76.96
2023-01-13T11:07:30.181Z,77.92
2023-01-13T11:10:09.281Z,78.44
2023-01-13T11:12:54.218Z,77.46
2023-01-13T11:15:25.137Z,77.84
2023-01-13T11:18:01.494Z,77.88
2023-01-13T11:20:34.069Z,78.95
2023-01-13T11:23:07.558Z,78.83
2023-01-13T11:25:45.230Z,78.57
2023-01-13T11:28:30.767Z,79.79
2023-01-13T11:31:25.534Z,78.95
2023-01-13T11:34:21.382Z,78.07
2023-01-13T11:36:52.566Z,77.99
2023-01-13T11:39:27.737Z,77.26
2023-01-13T11:42:20.349Z,77.86
2023-01-13T11:45:07.117Z,77.62
2023-01-13T11:47:35.631Z,78.49
2023-01-13T11:50:03.665Z,78.42
2023-01-13T11:52:42.881Z,77.36
2023-01-13T11:55:22.667Z,78.47
2023-01-13T11:58:00.427Z,78.11
2023-01-13T12:00:40.815Z,78.22
2023-01-13T12:03:10.689Z,78.08
2023-01-13T12:05:44.475Z,78.23
2023-01-13T12:08:31.857Z,77.99
2023-01-13T12:11:06.072Z,79.08
2023-01-13T12:14:04.753Z,79.84
2023-01-13T12:16:32.773Z,79.51
2023-01-13T12:19:11.676Z,79.24
2023-01-13T12:21:40.542Z,79.23
2023-01-13T12:24:10.832Z,78.89
2023-01-13T12:26:42.740Z,80.75
2023-01-13T12:29:15.019Z,80.67
2023-01-13T12:31:43.897Z,80.47
2023-01-13T12:34:10.800Z,80.97
2023-01-13T12:36:40.743Z,80.80
2023-01-13T12:39:19.991Z,79.70
2023-01-13T12:42:53.488Z,80.89
2023-01-13T12:45:40.563Z,79.86
2023-01-13T12:48:27.371Z,80.71
2023-01-13T12:51:00.805Z,79.90
2023-01-13T12:53:32.953Z,80.78
2023-01-13T12:56:37.346Z,80.71
2023-01-13T12:59:19.913Z,81.18
2023-01-13T13:01:52.594Z,81.43
2023-01-13T13:04:21.465Z,80.16
2023-01-13T13:07:10.511Z,81.62
2023-01-13T13:09:45.119Z,81.09
2023-01-13T13:12:49.393Z,80.13
2023-01-13T13:15:25.710Z,80.84
2023-01-13T13:18:17.359Z,81.10
2023-01-13T13:21:04.308Z,81.03
2023-01-13T13:23:40.425Z,80.83
2023-01-13T13:26:13.151Z,80.27
2023-01-13T13:28:49.017Z,81.79
2023-01-13T13:31:18.838Z,82.17
2023-01-13T13:34:11.034Z,80.70
2023-01-13T13:36:53.132Z,80.98
2023-01-13T13:39:49.282Z,82.43
2023-01-13T13:42:39.976Z,82.23
2023-01-13T13:45:51.950Z,82.58
2023-01-13T13:48:27.170Z,82.07
2023-01-13T13:51:02.368Z,82.76
2023-01-13T13:53:40.287Z,82.48
2023-01-13T13:56:18.866Z,82.01
2023-01-13T13:58:47.805Z,82.09
2023-01-13T14:01:29.086Z,83.19
2023-01-13T14:04:12.637Z,83.22
2023-01-13T14:06:50.612Z,83.26
2023-01-13T14:09:19.070Z,82.86
2023-01-13T14:11:56.929Z,82.46
2023-01-13T14:14:25.089Z,82.89
2023-01-13T14:16:54.895Z,82.87
2023-01-13T14:19:35.574Z,82.97
2023-01-13T14:22:05.649Z,83.27
2023-01-13T14:24:33.032Z,84.04
2023-01-13T14:27:11.398Z,84.08
2023-01-13T14:29:38.523Z,83.64
2023-01-13T14:32:07.436Z,82.55
2023-01-13T14:34:35.599Z,83.07
2023-01-13T14:37:03.832Z,82.82
2023-01-13T14:39:40.519Z,82.42
2023-01-13T14:42:14.187Z,82.56
2023-01-13T14:44:46.157Z,83.58
2023-01-13T14:47:25.527Z,83.42
2023-01-13T14:50:16.247Z,83.59
2023-01-13T14:52:57.400Z,83.79
2023-01-13T14:55:29.519Z,83.22
2023-01-13T14:58:21.415Z,83.86
2023-01-13T15:00:50.107Z,83.68
2023-01-13T15:03:18.817Z,84.60
2023-01-13T15:05:52.072Z,84.77
2023-01-13T15:08:28.872Z,83.40
2023-01-13T15:11:00.083Z,85.03
2023-01-13T15:13:36.323Z,84.95
2023-01-13T15:16:07.018Z,83.87
2023-01-13T15:18:35.777Z,84.15
2023-01-13T15:21:02.621Z,83.69
2023-01-13T15:23:29.637Z,85.18
2023-01-13T15:25:56.541Z,84.34
2023-01-13T15:28:25.513Z,85.66
2023-01-13T15:30:54.464Z,85.08
2023-01-13T15:33:22.351Z,86.17
2023-01-13T15:35:51.263Z,85.45
2023-01-13T15:38:21.392Z,85.09
2023-01-13T15:40:49.963Z,85.20
2023-01-13T15:43:38.664Z,84.72
2023-01-13T15:46:36.156Z,84.85
2023-01-13T15:49:10.086Z,84.71
2023-01-13T15:51:37.151Z,84.08
2023-01-13T15:54:04.068Z,84.08
2023-01-13T15:56:31.765Z,84.41
2023-01-13T15:58:58.733Z,84.90
2023-01-13T16:01:25.808Z,84.53
2023-01-13T16:03:52.829Z,84.95
2023-01-13T16:06:23.426Z,84.89
2023-01-13T16:08:50.428Z,84.66
2023-01-13T16:11:17.392Z,84.13
2023-01-13T16:13:44.252Z,84.17
2023-01-13T16:16:19.301Z,83.83
2023-01-13T16:18:46.764Z,83.93
2023-01-13T16:21:14.596Z,84.04
2023-01-13T16:23:41.802Z,83.84
2023-01-13T16:26:18.348Z,84.41
2023-01-13T16:28:45.678Z,83.33
2023-01-13T16:31:26.814Z,83.13
2023-01-13T16:33:54.246Z,83.35
2023-01-13T16:36:22.672Z,82.98
2023-01-13T16:38:51.844Z,84.11
2023-01-13T16:41:22.417Z,84.13
2023-01-13T16:43:49.368Z,84.54
2023-01-13T16:46:28.183Z,84.60
2023-01-13T16:49:01.305Z,85.46
2023-01-13T16:51:28.554Z,84.65
2023-01-13T16:53:55.409Z,85.26
2023-01-13T16:56:28.440Z,84.52
2023-01-13T16:58:58.453Z,84.53
2023-01-13T17:01:31.360Z,84.26
2023-01-13T17:03:59.159Z,83.61
2023-01-13T17:06:32.318Z,83.83
2023-01-13T17:09:07.600Z,83.78
2023-01-13T17:11:34.783Z,85.07
2023-01-13T17:14:07.309Z,84.89
2023-01-13T17:16:46.940Z,84.44
2023-01-13T17:19:13.983Z,84.77
2023-01-13T17:21:41.273Z,85.30
2023-01-13T17:24:09.861Z,84.92
2023-01-13T17:26:37.883Z,84.90
2023-01-13T17:29:06.759Z,84.68
2023-01-13T17:31:35.260Z,85.01
2023-01-13T17:34:03.476Z,84.29
2023-01-13T17:36:31.164Z,83.91
2023-01-13T17:38:58.613Z,84.05
2023-01-13T17:41:25.782Z,84.59
2023-01-13T17:43:53.531Z,84.28
2023-01-13T17:46:22.719Z,84.32
2023-01-13T17:48:51.413Z,84.15
2023-01-13T17:51:19.744Z,84.90
2023-01-13T17:53:46.854Z,84.96
2023-01-13T17:56:15.272Z,85.79
2023-01-13T17:58:42.161Z,85.62
2023-01-13T18:01:13.561Z,84.50
2023-01-13T18:03:40.452Z,85.12
2023-01-13T18:06:11.352Z,85.45
2023-01-13T18:08:38.285Z,85.66
2023-01-13T18:11:05.334Z,84.87
2023-01-13T18:13:34.947Z,85.14
2023-01-13T18:16:13.299Z,85.92
2023-01-13T18:18:42.256Z,86.23
2023-01-13T18:21:38.040Z,86.11
2023-01-13T18:24:24.717Z,86.07
2023-01-13T18:27:10.463Z,85.98
2023-01-13T18:29:37.390Z,86.23
2023-01-13T18:32:04.535Z,86.36
2023-01-13T18:34:31.811Z,86.01
2023-01-13T18:36:58.693Z,86.18
2023-01-13T18:39:25.541Z,86.30
2023-01-13T18:42:11.021Z,86.11
2023-01-13T18:44:38.026Z,85.60
2023-01-13T18:47:04.938Z,85.31
2023-01-13T18:49:31.952Z,86.15
2023-01-13T18:51:58.914Z,86.23
2023-01-13T18:54:25.845Z,86.41
2023-01-13T18:56:52.864Z,85.99
2023-01-13T18:59:19.742Z,85.82
2023-01-13T19:01:46.649Z,85.64
2023-01-13T19:04:16.939Z,85.75
2023-01-13T19:06:49.337Z,85.14
2023-01-13T19:09:18.070Z,85.59
2023-01-13T19:11:46.971Z,84.91
2023-01-13T19:14:34.198Z,84.60
2023-01-13T19:17:02.827Z,85.24
2023-01-13T19:19:32.162Z,85.91
2023-01-13T19:21:59.100Z,84.87
2023-01-13T19:24:26.219Z,84.88
2023-01-13T19:26:54.730Z,85.58
2023-01-13T19:29:21.773Z,86.36
2023-01-13T19:31:48.872Z,86.86
2023-01-13T19:34:15.989Z,86.61
2023-01-13T19:36:43.099Z,86.12
2023-01-13T19:39:10.368Z,86.50
2023-01-13T19:41:56.111Z,86.50
2023-01-13T19:44:41.898Z,86.98
2023-01-13T19:47:08.788Z,86.20
2023-01-13T19:49:35.744Z,86.15
2023-01-13T19:52:02.624Z,85.23
2023-01-13T19:54:29.580Z,85.17
2023-01-13T19:56:56.502Z,84.66
2023-01-13T19:59:29.182Z,85.39
2023-01-13T20:01:59.603Z,85.34
2023-01-13T20:04:38.487Z,85.25
2023-01-13T20:07:06.634Z,85.11
2023-01-13T20:09:35.793Z,85.81
2023-01-13T20:12:09.113Z,85.36
2023-01-13T20:14:36.157Z,84.83
2023-01-13T20:17:03.202Z,85.32
2023-01-13T20:19:30.061Z,85.22
2023-01-13T20:21:56.980Z,84.62
2023-01-13T20:24:26.172Z,84.13
2023-01-13T20:26:54.569Z,84.52
2023-01-13T20:29:22.346Z,84.64
2023-01-13T20:31:50.620Z,84.75
2023-01-13T20:34:20.436Z,84.87
2023-01-13T20:36:49.221Z,84.68
2023-01-13T20:39:26.726Z,84.09
2023-01-13T20:42:13.009Z,84.77
2023-01-13T20:44:39.933Z,84.13
2023-01-13T20:47:07.380Z,84.19
2023-01-13T20:49:36.304Z,84.57
2023-01-13T20:52:09.330Z,84.97
2023-01-13T20:54:40.644Z,84.73
2023-01-13T20:57:10.062Z,83.96
2023-01-13T20:59:38.461Z,84.58
2023-01-13T21:02:07.861Z,83.81
2023-01-13T21:04:34.747Z,84.22
2023-01-13T21:07:01.685Z,84.57
2023-01-13T21:09:29.409Z,84.73
2023-01-13T21:12:14.969Z,84.49
2023-01-13T21:15:00.498Z,85.15
2023-01-13T21:17:46.131Z,85.00
2023-01-13T21:20:14.764Z,85.11
2023-01-13T21:22:48.995Z,85.22
2023-01-13T21:25:18.207Z,85.50
2023-01-13T21:27:45.239Z,85.13
2023-01-13T21:30:15.617Z,85.48
2023-01-13T21:32:44.300Z,85.89
2023-01-13T21:35:12.236Z,85.55
2023-01-13T21:37:40.594Z,85.78
2023-01-13T21:40:11.257Z,85.30
2023-01-13T21:42:56.873Z,86.17
2023-01-13T21:45:42.233Z,85.68
2023-01-13T21:48:09.273Z,85.70
2023-01-13T21:50:37.959Z,86.50
2023-01-13T21:53:05.337Z,85.64
2023-01-13T21:55:32.986Z,86.20
2023-01-13T21:58:20.143Z,85.44
2023-01-13T22:00:49.248Z,85.81
2023-01-13T22:03:18.577Z,85.43
2023-01-13T22:05:46.412Z,85.19
2023-01-13T22:08:13.731Z,85.49
2023-01-13T22:11:10.072Z,85.53
2023-01-13T22:13:57.152Z,85.14
2023-01-13T22:16:25.579Z,84.95
2023-01-13T22:18:52.649Z,85.34
2023-01-13T22:21:20.085Z,85.07
2023-01-13T22:23:47.236Z,84.59
2023-01-13T22:26:14.064Z,85.06
2023-01-13T22:28:42.840Z,85.23
2023-01-13T22:31:15.381Z,85.70
2023-01-13T22:33:43.205Z,85.47
2023-01-13T22:36:10.267Z,85.93
2023-01-13T22:38:37.266Z,85.60
2023-01-13T22:41:06.832Z,85.28
2023-01-13T22:43:35.281Z,85.18
2023-01-13T22:46:08.107Z,85.57
2023-01-13T22:48:35.826Z,85.45
2023-01-13T22:51:07.884Z,86.03
2023-01-13T22:53:36.011Z,85.84
2023-01-13T22:56:03.089Z,86.21
2023-01-13T22:58:30.488Z,86.30
2023-01-13T23:01:10.447Z,85.51
2023-01-13T23:03:37.944Z,85.46
2023-01-13T23:06:05.881Z,85.92
2023-01-13T23:08:34.064Z,85.93
2023-01-13T23:11:03.717Z,86.02
2023-01-13T23:13:30.587Z,86.23
2023-01-13T23:16:05.533Z,86.12
2023-01-13T23:18:32.743Z,85.41
2023-01-13T23:21:08.282Z,85.33
2023-01-13T23:23:35.530Z,85.51
2023-01-13T23:26:04.127Z,85.18
2023-01-13T23:28:33.359Z,85.22
2023-01-13T23:31:00.548Z,85.37
2023-01-13T23:33:27.473Z,85.01
2023-01-13T23:36:04.169Z,85.55
2023-01-13T23:38:31.825Z,85.25
2023-01-13T23:40:59.277Z,85.02
2023-01-13T23:43:27.203Z,84.77
2023-01-13T23:46:02.504Z,85.48
2023-01-13T23:48:29.678Z,85.72
2023-01-13T23:51:00.940Z,85.76
2023-01-13T23:53:33.505Z,85.29
2023-01-13T23:56:02.105Z,85.37
2023-01-13T23:58:29.923Z,85.21
